sensor_id;sensor_type;location;lat;lon;timestamp;pressure;altitude;pressure_sealevel;temperature;humidity
46714;BME280;32445;51.376;10.874;2022-10-26T00:04:04;99600.50;;;11.63;55.33
46714;BME280;32445;51.376;10.874;2022-10-26T00:07:04;99605.78;;;11.59;55.36
46714;BME280;32445;51.376;10.874;2022-10-26T00:10:05;99613.69;;;11.56;54.45
46714;BME280;32445;51.376;10.874;2022-10-26T00:13:09;99607.75;;;11.51;55.03
46714;BME280;32445;51.376;10.874;2022-10-26T00:16:18;99619.06;;;11.49;55.00
46714;BME280;32445;51.376;10.874;2022-10-26T00:19:19;99611.38;;;11.46;54.72
46714;BME280;32445;51.376;10.874;2022-10-26T00:22:19;99610.63;;;11.42;55.36
46714;BME280;32445;51.376;10.874;2022-10-26T00:25:19;99612.38;;;11.40;54.63
46714;BME280;32445;51.376;10.874;2022-10-26T00:28:20;99610.75;;;11.36;55.24
46714;BME280;32445;51.376;10.874;2022-10-26T00:31:21;99603.00;;;11.34;55.17
46714;BME280;32445;51.376;10.874;2022-10-26T00:34:21;99605.69;;;11.31;55.41
46714;BME280;32445;51.376;10.874;2022-10-26T00:37:21;99605.84;;;11.27;55.01
46714;BME280;32445;51.376;10.874;2022-10-26T00:40:26;99605.03;;;11.23;55.36
46714;BME280;32445;51.376;10.874;2022-10-26T00:46:35;99609.53;;;11.18;55.09
46714;BME280;32445;51.376;10.874;2022-10-26T00:49:37;99600.91;;;11.16;55.26
46714;BME280;32445;51.376;10.874;2022-10-26T00:52:37;99599.25;;;11.13;55.27
46714;BME280;32445;51.376;10.874;2022-10-26T00:55:42;99609.72;;;11.10;55.66
46714;BME280;32445;51.376;10.874;2022-10-26T00:58:44;99608.09;;;11.07;55.40
46714;BME280;32445;51.376;10.874;2022-10-26T01:01:45;99602.91;;;11.06;55.52
46714;BME280;32445;51.376;10.874;2022-10-26T01:04:46;99602.16;;;11.02;55.00
46714;BME280;32445;51.376;10.874;2022-10-26T01:07:47;99603.97;;;10.99;55.62
46714;BME280;32445;51.376;10.874;2022-10-26T01:10:48;99592.78;;;10.97;56.05
46714;BME280;32445;51.376;10.874;2022-10-26T01:13:50;99598.03;;;10.94;55.93
46714;BME280;32445;51.376;10.874;2022-10-26T01:26:59;99597.50;;;10.81;55.63
46714;BME280;32445;51.376;10.874;2022-10-26T01:33:37;99588.88;;;10.79;55.47
46714;BME280;32445;51.376;10.874;2022-10-26T01:36:51;99581.22;;;10.74;55.84
46714;BME280;32445;51.376;10.874;2022-10-26T01:39:58;99576.03;;;10.74;55.68
46714;BME280;32445;51.376;10.874;2022-10-26T01:43:04;99568.25;;;10.74;56.28
46714;BME280;32445;51.376;10.874;2022-10-26T01:46:07;99574.31;;;10.73;56.44
46714;BME280;32445;51.376;10.874;2022-10-26T01:49:13;99570.88;;;10.72;56.20
46714;BME280;32445;51.376;10.874;2022-10-26T01:52:17;99572.59;;;10.73;56.39
46714;BME280;32445;51.376;10.874;2022-10-26T01:56:12;99569.22;;;10.70;56.82
46714;BME280;32445;51.376;10.874;2022-10-26T02:05:49;99570.09;;;10.70;56.23
46714;BME280;32445;51.376;10.874;2022-10-26T02:15:52;99559.75;;;10.67;56.53
46714;BME280;32445;51.376;10.874;2022-10-26T02:19:04;99556.28;;;10.68;56.43
46714;BME280;32445;51.376;10.874;2022-10-26T02:25:16;99552.00;;;10.66;56.40
46714;BME280;32445;51.376;10.874;2022-10-26T02:28:20;99556.31;;;10.67;56.74
46714;BME280;32445;51.376;10.874;2022-10-26T02:31:23;99553.72;;;10.67;56.48
46714;BME280;32445;51.376;10.874;2022-10-26T02:34:26;99549.41;;;10.66;57.07
46714;BME280;32445;51.376;10.874;2022-10-26T02:37:29;99539.94;;;10.65;56.73
46714;BME280;32445;51.376;10.874;2022-10-26T02:40:33;99542.53;;;10.65;56.81
46714;BME280;32445;51.376;10.874;2022-10-26T02:43:37;99535.63;;;10.64;57.05
46714;BME280;32445;51.376;10.874;2022-10-26T02:46:42;99540.81;;;10.64;56.72
46714;BME280;32445;51.376;10.874;2022-10-26T02:49:43;99539.09;;;10.63;56.38
46714;BME280;32445;51.376;10.874;2022-10-26T02:52:53;99532.25;;;10.62;56.38
46714;BME280;32445;51.376;10.874;2022-10-26T02:55:59;99540.03;;;10.60;57.42
46714;BME280;32445;51.376;10.874;2022-10-26T02:59:04;99534.00;;;10.60;56.76
46714;BME280;32445;51.376;10.874;2022-10-26T03:02:05;99534.88;;;10.59;56.55
46714;BME280;32445;51.376;10.874;2022-10-26T03:05:15;99540.16;;;10.55;56.80
46714;BME280;32445;51.376;10.874;2022-10-26T03:08:17;99529.78;;;10.55;56.89
46714;BME280;32445;51.376;10.874;2022-10-26T03:11:17;99536.72;;;10.55;56.81
46714;BME280;32445;51.376;10.874;2022-10-26T03:14:17;99528.94;;;10.55;56.99
46714;BME280;32445;51.376;10.874;2022-10-26T03:17:18;99535.88;;;10.54;56.81
46714;BME280;32445;51.376;10.874;2022-10-26T03:20:18;99529.84;;;10.52;57.01
46714;BME280;32445;51.376;10.874;2022-10-26T03:23:18;99525.56;;;10.51;56.73
46714;BME280;32445;51.376;10.874;2022-10-26T03:26:19;99529.13;;;10.47;56.62
46714;BME280;32445;51.376;10.874;2022-10-26T03:29:19;99528.34;;;10.44;56.56
46714;BME280;32445;51.376;10.874;2022-10-26T03:32:19;99537.03;;;10.43;56.70
46714;BME280;32445;51.376;10.874;2022-10-26T03:35:20;99530.16;;;10.40;56.37
46714;BME280;32445;51.376;10.874;2022-10-26T03:38:20;99531.06;;;10.39;56.43
46714;BME280;32445;51.376;10.874;2022-10-26T03:41:20;99522.50;;;10.35;55.97
46714;BME280;32445;51.376;10.874;2022-10-26T03:44:21;99525.97;;;10.34;56.06
46714;BME280;32445;51.376;10.874;2022-10-26T03:47:22;99517.34;;;10.32;56.33
46714;BME280;32445;51.376;10.874;2022-10-26T03:50:22;99519.16;;;10.30;56.50
46714;BME280;32445;51.376;10.874;2022-10-26T03:53:22;99516.59;;;10.29;56.53
46714;BME280;32445;51.376;10.874;2022-10-26T03:56:23;99514.06;;;10.26;56.24
46714;BME280;32445;51.376;10.874;2022-10-26T03:59:23;99515.84;;;10.24;56.18
46714;BME280;32445;51.376;10.874;2022-10-26T04:02:23;99512.41;;;10.23;56.42
46714;BME280;32445;51.376;10.874;2022-10-26T04:05:25;99513.28;;;10.22;56.35
46714;BME280;32445;51.376;10.874;2022-10-26T04:08:26;99510.75;;;10.20;56.44
46714;BME280;32445;51.376;10.874;2022-10-26T04:11:26;99499.56;;;10.17;56.82
46714;BME280;32445;51.376;10.874;2022-10-26T04:14:27;99503.91;;;10.16;56.95
46714;BME280;32445;51.376;10.874;2022-10-26T04:17:27;99503.09;;;10.14;56.64
46714;BME280;32445;51.376;10.874;2022-10-26T04:20:29;99503.13;;;10.13;56.41
46714;BME280;32445;51.376;10.874;2022-10-26T04:23:29;99501.47;;;10.10;56.36
46714;BME280;32445;51.376;10.874;2022-10-26T04:26:29;99498.06;;;10.08;56.67
46714;BME280;32445;51.376;10.874;2022-10-26T04:29:30;99520.59;;;10.06;56.76
46714;BME280;32445;51.376;10.874;2022-10-26T04:32:30;99505.91;;;10.05;57.12
46714;BME280;32445;51.376;10.874;2022-10-26T04:35:31;99517.16;;;10.04;56.43
46714;BME280;32445;51.376;10.874;2022-10-26T04:38:31;99500.81;;;10.02;57.08
46714;BME280;32445;51.376;10.874;2022-10-26T04:41:31;99507.72;;;10.01;56.55
46714;BME280;32445;51.376;10.874;2022-10-26T04:44:32;99501.69;;;10.01;56.75
46714;BME280;32445;51.376;10.874;2022-10-26T04:47:32;99497.38;;;10.00;56.59
46714;BME280;32445;51.376;10.874;2022-10-26T04:50:33;99494.81;;;9.98;56.98
46714;BME280;32445;51.376;10.874;2022-10-26T04:53:33;99500.88;;;9.99;57.03
46714;BME280;32445;51.376;10.874;2022-10-26T04:56:34;99504.31;;;9.99;56.94
46714;BME280;32445;51.376;10.874;2022-10-26T04:59:34;99513.88;;;9.97;56.78
46714;BME280;32445;51.376;10.874;2022-10-26T05:02:34;99507.84;;;9.97;56.86
46714;BME280;32445;51.376;10.874;2022-10-26T05:05:35;99505.28;;;9.95;57.01
46714;BME280;32445;51.376;10.874;2022-10-26T05:08:36;99509.59;;;9.96;56.71
46714;BME280;32445;51.376;10.874;2022-10-26T05:11:36;99504.44;;;9.95;56.83
46714;BME280;32445;51.376;10.874;2022-10-26T05:14:37;99495.78;;;9.96;56.78
46714;BME280;32445;51.376;10.874;2022-10-26T05:17:37;99498.38;;;9.94;57.21
46714;BME280;32445;51.376;10.874;2022-10-26T05:20:37;99497.50;;;9.95;56.87
46714;BME280;32445;51.376;10.874;2022-10-26T05:23:38;99504.41;;;9.96;57.03
46714;BME280;32445;51.376;10.874;2022-10-26T05:26:38;99513.94;;;9.96;57.17
46714;BME280;32445;51.376;10.874;2022-10-26T05:29:38;99513.88;;;9.97;57.03
46714;BME280;32445;51.376;10.874;2022-10-26T05:32:39;99507.84;;;9.97;57.54
46714;BME280;32445;51.376;10.874;2022-10-26T05:35:39;99501.75;;;9.98;57.27
46714;BME280;32445;51.376;10.874;2022-10-26T05:38:39;99500.88;;;9.99;57.05
46714;BME280;32445;51.376;10.874;2022-10-26T05:41:40;99510.34;;;10.00;57.38
46714;BME280;32445;51.376;10.874;2022-10-26T05:44:40;99508.63;;;10.00;57.20
46714;BME280;32445;51.376;10.874;2022-10-26T05:47:41;99504.31;;;9.99;57.72
46714;BME280;32445;51.376;10.874;2022-10-26T05:50:42;99512.94;;;10.00;57.49
46714;BME280;32445;51.376;10.874;2022-10-26T05:53:42;99512.09;;;9.99;57.69
46714;BME280;32445;51.376;10.874;2022-10-26T05:56:43;99515.50;;;10.01;58.16
46714;BME280;32445;51.376;10.874;2022-10-26T05:59:44;99506.84;;;10.02;57.77
46714;BME280;32445;51.376;10.874;2022-10-26T06:06:10;99517.09;;;10.07;57.63
46714;BME280;32445;51.376;10.874;2022-10-26T06:09:13;99507.59;;;10.08;57.80
46714;BME280;32445;51.376;10.874;2022-10-26T06:12:14;99514.44;;;10.10;57.53
46714;BME280;32445;51.376;10.874;2022-10-26T06:15:18;99518.72;;;10.11;57.82
46714;BME280;32445;51.376;10.874;2022-10-26T06:22:00;99518.63;;;10.16;57.78
46714;BME280;32445;51.376;10.874;2022-10-26T06:29:18;99527.19;;;10.19;57.84
46714;BME280;32445;51.376;10.874;2022-10-26T06:32:22;99526.25;;;10.22;58.03
46714;BME280;32445;51.376;10.874;2022-10-26T06:38:33;99529.63;;;10.26;57.73
46714;BME280;32445;51.376;10.874;2022-10-26T06:41:35;99533.03;;;10.28;58.07
46714;BME280;32445;51.376;10.874;2022-10-26T06:44:36;99545.09;;;10.30;58.26
46714;BME280;32445;51.376;10.874;2022-10-26T06:47:42;99540.72;;;10.32;57.88
46714;BME280;32445;51.376;10.874;2022-10-26T06:50:51;99540.72;;;10.32;58.30
46714;BME280;32445;51.376;10.874;2022-10-26T06:54:12;99546.81;;;10.30;59.01
46714;BME280;32445;51.376;10.874;2022-10-26T06:57:16;99546.81;;;10.30;59.10
46714;BME280;32445;51.376;10.874;2022-10-26T07:00:22;99550.41;;;10.24;59.53
46714;BME280;32445;51.376;10.874;2022-10-26T07:03:22;99545.19;;;10.26;59.18
46714;BME280;32445;51.376;10.874;2022-10-26T07:06:24;99553.03;;;10.22;59.71
46714;BME280;32445;51.376;10.874;2022-10-26T07:09:24;99555.56;;;10.26;60.11
46714;BME280;32445;51.376;10.874;2022-10-26T07:12:24;99554.69;;;10.27;59.19
46714;BME280;32445;51.376;10.874;2022-10-26T07:15:24;99559.81;;;10.28;60.06
46714;BME280;32445;51.376;10.874;2022-10-26T07:18:25;99550.34;;;10.27;60.56
46714;BME280;32445;51.376;10.874;2022-10-26T07:21:25;99552.91;;;10.29;60.66
46714;BME280;32445;51.376;10.874;2022-10-26T07:24:27;99552.84;;;10.32;60.56
46714;BME280;32445;51.376;10.874;2022-10-26T07:27:28;99552.78;;;10.33;60.18
46714;BME280;32445;51.376;10.874;2022-10-26T07:30:29;99557.06;;;10.37;60.06
46714;BME280;32445;51.376;10.874;2022-10-26T07:33:29;99551.72;;;10.44;59.94
46714;BME280;32445;51.376;10.874;2022-10-26T07:36:30;99556.66;;;10.53;59.86
46714;BME280;32445;51.376;10.874;2022-10-26T07:39:30;99556.56;;;10.58;59.44
46714;BME280;32445;51.376;10.874;2022-10-26T07:42:31;99565.03;;;10.64;59.82
46714;BME280;32445;51.376;10.874;2022-10-26T07:45:32;99560.53;;;10.71;59.40
46714;BME280;32445;51.376;10.874;2022-10-26T07:48:32;99564.75;;;10.75;60.02
46714;BME280;32445;51.376;10.874;2022-10-26T07:51:33;99569.03;;;10.78;59.80
46714;BME280;32445;51.376;10.874;2022-10-26T07:54:33;99569.88;;;10.78;60.00
46714;BME280;32445;51.376;10.874;2022-10-26T07:57:33;99566.41;;;10.79;60.08
46714;BME280;32445;51.376;10.874;2022-10-26T08:00:34;99570.72;;;10.79;60.67
46714;BME280;32445;51.376;10.874;2022-10-26T08:03:34;99563.84;;;10.78;61.09
46714;BME280;32445;51.376;10.874;2022-10-26T08:06:35;99568.91;;;10.82;61.24
46714;BME280;32445;51.376;10.874;2022-10-26T08:09:35;99576.53;;;10.88;61.08
46714;BME280;32445;51.376;10.874;2022-10-26T08:12:35;99579.88;;;10.94;60.60
46714;BME280;32445;51.376;10.874;2022-10-26T08:15:36;99580.63;;;10.97;61.46
46714;BME280;32445;51.376;10.874;2022-10-26T08:18:36;99588.31;;;11.00;61.68
46714;BME280;32445;51.376;10.874;2022-10-26T08:21:37;99585.69;;;11.03;61.81
46714;BME280;32445;51.376;10.874;2022-10-26T08:24:37;99588.31;;;11.00;62.07
46714;BME280;32445;51.376;10.874;2022-10-26T08:27:37;99587.34;;;11.04;61.78
46714;BME280;32445;51.376;10.874;2022-10-26T08:30:37;99594.25;;;11.05;61.84
46714;BME280;32445;51.376;10.874;2022-10-26T08:33:38;99586.34;;;11.10;62.14
46714;BME280;32445;51.376;10.874;2022-10-26T08:36:38;99584.56;;;11.12;62.51
46714;BME280;32445;51.376;10.874;2022-10-26T08:39:38;99579.28;;;11.15;62.96
46714;BME280;32445;51.376;10.874;2022-10-26T08:42:43;99579.09;;;11.21;62.69
46714;BME280;32445;51.376;10.874;2022-10-26T08:45:50;99573.69;;;11.31;61.83
46714;BME280;32445;51.376;10.874;2022-10-26T08:48:54;99580.41;;;11.38;62.34
46714;BME280;32445;51.376;10.874;2022-10-26T08:51:59;99576.72;;;11.45;61.59
46714;BME280;32445;51.376;10.874;2022-10-26T08:55:01;99580.84;;;11.52;61.58
46714;BME280;32445;51.376;10.874;2022-10-26T08:58:04;99586.66;;;11.62;61.41
46714;BME280;32445;51.376;10.874;2022-10-26T09:01:07;99593.28;;;11.72;61.15
46714;BME280;32445;51.376;10.874;2022-10-26T09:04:10;99586.09;;;11.81;61.24
46714;BME280;32445;51.376;10.874;2022-10-26T09:14:27;99582.94;;;11.99;61.45
46714;BME280;32445;51.376;10.874;2022-10-26T09:24:01;99580.69;;;12.17;61.22
46714;BME280;32445;51.376;10.874;2022-10-26T09:30:15;99574.16;;;12.32;60.51
46714;BME280;32445;51.376;10.874;2022-10-26T09:33:19;99574.81;;;12.38;60.49
46714;BME280;32445;51.376;10.874;2022-10-26T09:36:21;99576.25;;;12.47;60.67
46714;BME280;32445;51.376;10.874;2022-10-26T09:42:45;99598.75;;;12.50;61.24
46714;BME280;32445;51.376;10.874;2022-10-26T09:45:50;99595.78;;;12.60;60.85
46714;BME280;32445;51.376;10.874;2022-10-26T09:48:54;99598.13;;;12.68;60.83
46714;BME280;32445;51.376;10.874;2022-10-26T09:51:55;99605.63;;;12.77;60.64
46714;BME280;32445;51.376;10.874;2022-10-26T09:54:55;99606.19;;;12.87;60.67
46714;BME280;32445;51.376;10.874;2022-10-26T09:58:00;99605.00;;;12.96;60.89
46714;BME280;32445;51.376;10.874;2022-10-26T10:01:03;99615.13;;;13.05;60.41
46714;BME280;32445;51.376;10.874;2022-10-26T10:04:09;99608.69;;;13.15;60.91
46714;BME280;32445;51.376;10.874;2022-10-26T10:07:41;99621.28;;;13.28;60.27
46714;BME280;32445;51.376;10.874;2022-10-26T10:14:05;99617.44;;;13.40;60.64
46714;BME280;32445;51.376;10.874;2022-10-26T10:17:18;99620.66;;;13.46;60.76
46714;BME280;32445;51.376;10.874;2022-10-26T10:20:28;99618.50;;;13.58;60.39
46714;BME280;32445;51.376;10.874;2022-10-26T10:26:54;99614.63;;;13.68;60.37
46714;BME280;32445;51.376;10.874;2022-10-26T10:29:57;99605.69;;;13.75;60.27
46714;BME280;32445;51.376;10.874;2022-10-26T10:33:10;99615.09;;;13.79;60.67
46714;BME280;32445;51.376;10.874;2022-10-26T10:36:17;99611.41;;;13.85;60.49
46714;BME280;32445;51.376;10.874;2022-10-26T10:39:42;99613.00;;;13.89;60.84
46714;BME280;32445;51.376;10.874;2022-10-26T10:42:43;99617.06;;;13.96;60.98
46714;BME280;32445;51.376;10.874;2022-10-26T10:45:50;99617.69;;;14.03;61.16
46714;BME280;32445;51.376;10.874;2022-10-26T10:48:54;99612.03;;;14.14;61.22
46714;BME280;32445;51.376;10.874;2022-10-26T10:51:59;99622.00;;;14.26;61.04
46714;BME280;32445;51.376;10.874;2022-10-26T10:58:20;99626.56;;;14.43;60.36
46714;BME280;32445;51.376;10.874;2022-10-26T11:01:26;99625.41;;;14.50;60.13
46714;BME280;32445;51.376;10.874;2022-10-26T11:05:34;99624.31;;;14.56;60.08
46714;BME280;32445;51.376;10.874;2022-10-26T11:08:16;99631.66;;;14.68;59.78
46714;BME280;32445;51.376;10.874;2022-10-26T11:11:22;99631.38;;;14.76;59.23
46714;BME280;32445;51.376;10.874;2022-10-26T11:14:28;99635.41;;;14.83;59.41
46714;BME280;32445;51.376;10.874;2022-10-26T11:17:44;99635.94;;;14.92;59.11
46714;BME280;32445;51.376;10.874;2022-10-26T11:21:04;99632.22;;;14.97;59.15
46714;BME280;32445;51.376;10.874;2022-10-26T11:27:33;99637.91;;;15.07;59.12
46714;BME280;32445;51.376;10.874;2022-10-26T11:30:42;99632.44;;;15.13;58.80
46714;BME280;32445;51.376;10.874;2022-10-26T11:33:57;99624.50;;;15.15;59.16
46714;BME280;32445;51.376;10.874;2022-10-26T11:37:04;99617.31;;;15.20;58.80
46714;BME280;32445;51.376;10.874;2022-10-26T11:43:41;99608.34;;;15.26;59.33
46714;BME280;32445;51.376;10.874;2022-10-26T11:46:47;99606.38;;;15.31;59.15
46714;BME280;32445;51.376;10.874;2022-10-26T11:49:54;99602.78;;;15.33;59.26
46714;BME280;32445;51.376;10.874;2022-10-26T11:55:57;99607.47;;;15.46;59.28
46714;BME280;32445;51.376;10.874;2022-10-26T11:58:58;99611.72;;;15.48;59.76
46714;BME280;32445;51.376;10.874;2022-10-26T12:02:03;99609.03;;;15.50;59.04
46714;BME280;32445;51.376;10.874;2022-10-26T12:05:05;99614.03;;;15.54;58.90
46714;BME280;32445;51.376;10.874;2022-10-26T12:08:37;99615.59;;;15.58;59.33
46714;BME280;32445;51.376;10.874;2022-10-26T12:11:47;99611.69;;;15.69;59.06
46714;BME280;32445;51.376;10.874;2022-10-26T12:18:24;99618.97;;;15.81;59.25
46714;BME280;32445;51.376;10.874;2022-10-26T12:21:28;99625.63;;;15.88;59.50
46714;BME280;32445;51.376;10.874;2022-10-26T12:24:30;99619.13;;;15.97;60.10
46714;BME280;32445;51.376;10.874;2022-10-26T12:30:37;99625.63;;;16.26;60.87
46714;BME280;32445;51.376;10.874;2022-10-26T12:33:49;99621.47;;;16.40;60.44
46714;BME280;32445;51.376;10.874;2022-10-26T12:43:33;99628.63;;;16.90;59.25
46714;BME280;32445;51.376;10.874;2022-10-26T12:46:37;99634.91;;;17.05;59.49
46714;BME280;32445;51.376;10.874;2022-10-26T12:53:09;99626.03;;;17.41;59.65
46714;BME280;32445;51.376;10.874;2022-10-26T12:56:15;99637.03;;;17.66;59.31
46714;BME280;32445;51.376;10.874;2022-10-26T13:06:58;99633.63;;;18.29;58.97
46714;BME280;32445;51.376;10.874;2022-10-26T13:13:21;99630.97;;;18.75;56.70
46714;BME280;32445;51.376;10.874;2022-10-26T13:16:25;99629.09;;;18.93;56.89
46714;BME280;32445;51.376;10.874;2022-10-26T13:19:44;99629.88;;;19.10;56.17
46714;BME280;32445;51.376;10.874;2022-10-26T13:22:45;99631.31;;;19.30;55.28
46714;BME280;32445;51.376;10.874;2022-10-26T13:26:01;99626.06;;;19.44;54.73
46714;BME280;32445;51.376;10.874;2022-10-26T13:29:02;99624.38;;;19.58;53.95
46714;BME280;32445;51.376;10.874;2022-10-26T13:32:03;99623.88;;;19.65;53.57
46714;BME280;32445;51.376;10.874;2022-10-26T13:35:04;99624.38;;;19.72;52.89
46714;BME280;32445;51.376;10.874;2022-10-26T13:38:11;99623.06;;;19.79;53.14
46714;BME280;32445;51.376;10.874;2022-10-26T13:41:25;99633.31;;;19.84;52.67
46714;BME280;32445;51.376;10.874;2022-10-26T13:44:40;99632.91;;;19.90;51.82
46714;BME280;32445;51.376;10.874;2022-10-26T13:47:42;99630.84;;;19.95;52.64
46714;BME280;32445;51.376;10.874;2022-10-26T13:50:53;99637.81;;;19.96;52.10
46714;BME280;32445;51.376;10.874;2022-10-26T13:54:00;99636.22;;;19.94;51.58
46714;BME280;32445;51.376;10.874;2022-10-26T14:00:19;99648.16;;;19.99;52.35
46714;BME280;32445;51.376;10.874;2022-10-26T14:03:20;99639.66;;;20.09;52.80
46714;BME280;32445;51.376;10.874;2022-10-26T14:06:30;99641.16;;;20.13;52.98
46714;BME280;32445;51.376;10.874;2022-10-26T14:09:32;99644.88;;;20.23;53.04
46714;BME280;32445;51.376;10.874;2022-10-26T14:12:32;99646.94;;;20.32;52.22
46714;BME280;32445;51.376;10.874;2022-10-26T14:15:33;99663.81;;;20.30;52.04
46714;BME280;32445;51.376;10.874;2022-10-26T14:18:35;99658.13;;;20.36;52.15
46714;BME280;32445;51.376;10.874;2022-10-26T14:21:38;99658.06;;;20.37;51.77
46714;BME280;32445;51.376;10.874;2022-10-26T14:24:39;99655.22;;;20.40;51.90
46714;BME280;32445;51.376;10.874;2022-10-26T14:27:40;99637.41;;;20.44;51.56
46714;BME280;32445;51.376;10.874;2022-10-26T14:30:42;99646.16;;;20.45;51.25
46714;BME280;32445;51.376;10.874;2022-10-26T14:33:42;99662.00;;;20.45;51.50
46714;BME280;32445;51.376;10.874;2022-10-26T14:36:47;99660.38;;;20.42;51.88
46714;BME280;32445;51.376;10.874;2022-10-26T14:39:48;99654.19;;;20.43;52.10
46714;BME280;32445;51.376;10.874;2022-10-26T14:42:51;99658.28;;;20.47;52.31
46714;BME280;32445;51.376;10.874;2022-10-26T14:45:53;99659.69;;;20.53;52.02
46714;BME280;32445;51.376;10.874;2022-10-26T14:48:57;99666.44;;;20.57;52.36
46714;BME280;32445;51.376;10.874;2022-10-26T14:52:04;99665.19;;;20.63;52.59
46714;BME280;32445;51.376;10.874;2022-10-26T14:55:15;99653.53;;;20.67;51.95
46714;BME280;32445;51.376;10.874;2022-10-26T14:58:22;99662.19;;;20.69;51.74
46714;BME280;32445;51.376;10.874;2022-10-26T15:01:27;99657.66;;;20.71;51.78
46714;BME280;32445;51.376;10.874;2022-10-26T15:04:31;99659.47;;;20.70;51.54
46714;BME280;32445;51.376;10.874;2022-10-26T15:07:36;99658.88;;;20.65;51.21
46714;BME280;32445;51.376;10.874;2022-10-26T15:13:39;99665.97;;;20.65;51.32
46714;BME280;32445;51.376;10.874;2022-10-26T15:16:49;99665.31;;;20.61;51.06
46714;BME280;32445;51.376;10.874;2022-10-26T15:19:52;99661.84;;;20.61;51.91
46714;BME280;32445;51.376;10.874;2022-10-26T15:22:54;99664.25;;;20.64;51.91
46714;BME280;32445;51.376;10.874;2022-10-26T15:25:57;99675.53;;;20.66;51.81
46714;BME280;32445;51.376;10.874;2022-10-26T15:28:59;99686.19;;;20.64;51.61
46714;BME280;32445;51.376;10.874;2022-10-26T15:32:00;99694.09;;;20.64;51.71
46714;BME280;32445;51.376;10.874;2022-10-26T15:38:19;99691.78;;;20.60;51.54
46714;BME280;32445;51.376;10.874;2022-10-26T15:41:56;99696.38;;;20.56;51.35
46714;BME280;32445;51.376;10.874;2022-10-26T15:44:51;99700.09;;;20.53;51.39
46714;BME280;32445;51.376;10.874;2022-10-26T15:47:53;99703.97;;;20.48;51.23
46714;BME280;32445;51.376;10.874;2022-10-26T15:50:54;99712.19;;;20.43;50.94
46714;BME280;32445;51.376;10.874;2022-10-26T15:54:03;99706.44;;;20.36;51.07
46714;BME280;32445;51.376;10.874;2022-10-26T15:57:03;99711.06;;;20.33;50.93
46714;BME280;32445;51.376;10.874;2022-10-26T16:00:06;99710.50;;;20.28;50.82
46714;BME280;32445;51.376;10.874;2022-10-26T16:03:11;99711.84;;;20.20;50.47
46714;BME280;32445;51.376;10.874;2022-10-26T16:06:17;99721.09;;;20.13;50.23
46714;BME280;32445;51.376;10.874;2022-10-26T16:09:23;99719.66;;;20.08;50.63
46714;BME280;32445;51.376;10.874;2022-10-26T16:12:23;99721.00;;;20.00;50.54
46714;BME280;32445;51.376;10.874;2022-10-26T16:15:24;99733.69;;;19.94;50.60
46714;BME280;32445;51.376;10.874;2022-10-26T16:18:25;99738.56;;;19.85;50.53
46714;BME280;32445;51.376;10.874;2022-10-26T16:21:25;99746.03;;;19.79;50.59
46714;BME280;32445;51.376;10.874;2022-10-26T16:24:27;99747.38;;;19.70;50.37
46714;BME280;32445;51.376;10.874;2022-10-26T16:27:28;99758.38;;;19.62;50.31
46714;BME280;32445;51.376;10.874;2022-10-26T16:30:28;99760.59;;;19.54;50.06
46714;BME280;32445;51.376;10.874;2022-10-26T16:33:30;99762.78;;;19.47;50.05
46714;BME280;32445;51.376;10.874;2022-10-26T16:36:30;99761.59;;;19.37;50.41
46714;BME280;32445;51.376;10.874;2022-10-26T16:39:33;99755.09;;;19.28;50.13
46714;BME280;32445;51.376;10.874;2022-10-26T16:42:34;99766.91;;;19.21;49.89
46714;BME280;32445;51.376;10.874;2022-10-26T16:45:39;99765.66;;;19.12;49.87
46714;BME280;32445;51.376;10.874;2022-10-26T16:48:42;99767.88;;;19.04;49.78
46714;BME280;32445;51.376;10.874;2022-10-26T16:51:43;99773.66;;;18.95;49.91
46714;BME280;32445;51.376;10.874;2022-10-26T16:54:43;99775.88;;;18.87;50.12
46714;BME280;32445;51.376;10.874;2022-10-26T16:57:43;99783.25;;;18.80;50.39
46714;BME280;32445;51.376;10.874;2022-10-26T17:00:44;99792.41;;;18.73;50.35
46714;BME280;32445;51.376;10.874;2022-10-26T17:03:48;99801.63;;;18.64;50.34
46714;BME280;32445;51.376;10.874;2022-10-26T17:06:49;99796.81;;;18.56;50.41
46714;BME280;32445;51.376;10.874;2022-10-26T17:09:49;99797.25;;;18.48;50.62
46714;BME280;32445;51.376;10.874;2022-10-26T17:12:50;99790.75;;;18.38;50.51
46714;BME280;32445;51.376;10.874;2022-10-26T17:15:50;99799.06;;;18.30;50.68
46714;BME280;32445;51.376;10.874;2022-10-26T17:18:51;99803.78;;;18.24;50.90
46714;BME280;32445;51.376;10.874;2022-10-26T17:21:52;99812.94;;;18.16;51.06
46714;BME280;32445;51.376;10.874;2022-10-26T17:24:52;99808.00;;;18.10;51.08
46714;BME280;32445;51.376;10.874;2022-10-26T17:27:53;99810.09;;;18.04;51.65
46714;BME280;32445;51.376;10.874;2022-10-26T17:34:04;99836.16;;;17.91;51.47
46714;BME280;32445;51.376;10.874;2022-10-26T17:37:04;99842.59;;;17.84;51.32
46714;BME280;32445;51.376;10.874;2022-10-26T17:40:05;99842.94;;;17.77;51.60
46714;BME280;32445;51.376;10.874;2022-10-26T17:43:06;99840.69;;;17.70;51.57
46714;BME280;32445;51.376;10.874;2022-10-26T17:46:09;99868.09;;;17.64;51.47
46714;BME280;32445;51.376;10.874;2022-10-26T17:49:10;99857.13;;;17.56;51.93
46714;BME280;32445;51.376;10.874;2022-10-26T17:52:10;99865.31;;;17.50;51.77
46714;BME280;32445;51.376;10.874;2022-10-26T17:55:10;99863.75;;;17.45;51.71
46714;BME280;32445;51.376;10.874;2022-10-26T17:58:11;99871.91;;;17.39;52.18
46714;BME280;32445;51.376;10.874;2022-10-26T18:01:12;99881.78;;;17.34;52.30
46714;BME280;32445;51.376;10.874;2022-10-26T18:04:12;99869.91;;;17.27;51.98
46714;BME280;32445;51.376;10.874;2022-10-26T18:07:13;99880.69;;;17.21;52.08
46714;BME280;32445;51.376;10.874;2022-10-26T18:10:13;99880.13;;;17.14;52.10